createdAt,value
2022-10-09T00:01:20.046Z,8.75
2022-10-09T00:03:52.091Z,6.30
2022-10-09T00:06:21.813Z,8.65
2022-10-09T00:08:50.162Z,6.40
2022-10-09T00:11:19.712Z,7.25
2022-10-09T00:13:47.901Z,7.13
2022-10-09T00:16:17.482Z,8.07
2022-10-09T00:18:46.156Z,7.63
2022-10-09T00:21:21.500Z,7.03
2022-10-09T00:23:50.273Z,9.85
2022-10-09T00:26:19.324Z,7.32
2022-10-09T00:28:48.136Z,7.47
2022-10-09T00:31:17.131Z,6.72
2022-10-09T00:33:45.256Z,6.75
2022-10-09T00:36:16.132Z,9.65
2022-10-09T00:38:45.829Z,8.23
2022-10-09T00:41:17.068Z,9.30
2022-10-09T00:43:48.738Z,6.32
2022-10-09T00:46:29.498Z,6.00
2022-10-09T00:49:02.757Z,9.35
2022-10-09T00:51:32.786Z,8.30
2022-10-09T00:54:04.201Z,7.47
2022-10-09T00:56:32.372Z,7.65
2022-10-09T00:59:00.813Z,5.78
2022-10-09T01:01:28.890Z,5.07
2022-10-09T01:03:57.183Z,7.68
2022-10-09T01:06:35.850Z,6.03
2022-10-09T01:09:10.452Z,5.80
2022-10-09T01:11:48.260Z,9.95
2022-10-09T01:14:25.309Z,7.55
2022-10-09T01:17:03.257Z,6.20
2022-10-09T01:19:51.239Z,8.25
2022-10-09T01:22:40.903Z,7.15
2022-10-09T01:25:14.897Z,10.57
2022-10-09T01:27:44.476Z,9.10
2022-10-09T01:30:14.366Z,8.50
2022-10-09T01:32:47.444Z,12.80
2022-10-09T01:35:16.750Z,11.43
2022-10-09T01:37:47.590Z,12.02
2022-10-09T01:40:18.299Z,14.25
2022-10-09T01:42:48.216Z,5.97
2022-10-09T01:45:17.244Z,12.73
2022-10-09T01:47:45.532Z,9.05
2022-10-09T01:50:22.824Z,6.80
2022-10-09T01:52:54.478Z,7.85
2022-10-09T01:55:33.556Z,9.75
2022-10-09T01:58:08.443Z,7.78
2022-10-09T02:00:41.007Z,10.05
2022-10-09T02:03:14.347Z,10.85
2022-10-09T02:05:44.952Z,7.73
2022-10-09T02:08:15.322Z,10.15
2022-10-09T02:10:45.588Z,11.32
2022-10-09T02:13:15.067Z,8.20
2022-10-09T02:15:49.357Z,9.73
2022-10-09T02:18:22.340Z,9.98
2022-10-09T02:20:55.510Z,8.20
2022-10-09T02:23:25.347Z,9.40
2022-10-09T02:25:54.692Z,10.13
2022-10-09T02:28:24.550Z,6.18
2022-10-09T02:30:58.410Z,9.95
2022-10-09T02:33:32.998Z,9.90
2022-10-09T02:36:01.899Z,13.93
2022-10-09T02:38:30.212Z,11.93
2022-10-09T02:41:01.901Z,8.18
2022-10-09T02:43:31.428Z,6.07
2022-10-09T02:45:59.679Z,8.45
2022-10-09T02:48:27.759Z,7.80
2022-10-09T02:50:55.974Z,6.47
2022-10-09T02:53:24.010Z,10.75
2022-10-09T02:55:52.124Z,12.77
2022-10-09T02:58:20.121Z,7.32
2022-10-09T03:00:51.981Z,8.02
2022-10-09T03:03:21.502Z,9.63
2022-10-09T03:05:49.804Z,10.27
2022-10-09T03:08:17.785Z,12.30
2022-10-09T03:10:46.046Z,11.85
2022-10-09T03:13:14.049Z,18.13
2022-10-09T03:15:42.161Z,16.77
2022-10-09T03:18:11.780Z,9.57
2022-10-09T03:20:40.089Z,15.32
2022-10-09T03:23:08.366Z,12.98
2022-10-09T03:25:36.588Z,11.30
2022-10-09T03:28:05.462Z,15.15
2022-10-09T03:30:33.504Z,10.63
2022-10-09T03:33:01.710Z,10.50
2022-10-09T03:35:31.134Z,9.40
2022-10-09T03:37:59.269Z,9.27
2022-10-09T03:40:27.254Z,9.60
2022-10-09T03:42:55.423Z,14.30
2022-10-09T03:45:23.570Z,12.10
2022-10-09T03:47:51.797Z,11.50
2022-10-09T03:50:20.041Z,9.95
2022-10-09T03:52:49.560Z,9.57
2022-10-09T03:55:18.256Z,7.75
2022-10-09T03:57:46.226Z,8.38
2022-10-09T04:00:15.936Z,10.55
2022-10-09T04:02:44.091Z,7.32
2022-10-09T04:05:12.329Z,9.70
2022-10-09T04:07:40.461Z,9.10
2022-10-09T04:10:10.941Z,7.78
2022-10-09T04:12:39.101Z,6.75
2022-10-09T04:15:07.967Z,7.55
2022-10-09T04:17:36.211Z,17.70
2022-10-09T04:20:04.641Z,17.02
2022-10-09T04:22:32.988Z,12.40
2022-10-09T04:25:00.935Z,14.15
2022-10-09T04:27:30.852Z,12.98
2022-10-09T04:29:58.850Z,13.43
2022-10-09T04:32:27.120Z,19.25
2022-10-09T04:34:55.121Z,15.57
2022-10-09T04:37:23.291Z,14.02
2022-10-09T04:39:51.529Z,12.52
2022-10-09T04:42:19.602Z,12.18
2022-10-09T04:44:49.529Z,17.90
2022-10-09T04:47:17.521Z,15.13
2022-10-09T04:49:45.700Z,16.40
2022-10-09T04:52:13.662Z,19.23
2022-10-09T04:54:41.814Z,15.77
2022-10-09T04:57:09.807Z,19.25
2022-10-09T04:59:37.970Z,19.00
2022-10-09T05:02:07.348Z,15.57
2022-10-09T05:04:35.797Z,24.42
2022-10-09T05:07:03.904Z,14.27
2022-10-09T05:09:31.869Z,13.95
2022-10-09T05:12:00.138Z,11.57
2022-10-09T05:14:28.090Z,9.00
2022-10-09T05:17:13.108Z,17.38
2022-10-09T05:19:43.729Z,18.75
2022-10-09T05:22:12.738Z,21.75
2022-10-09T05:24:40.669Z,23.92
2022-10-09T05:27:08.906Z,22.15
2022-10-09T05:29:36.895Z,19.42
2022-10-09T05:32:05.383Z,18.42
2022-10-09T05:34:35.308Z,24.48
2022-10-09T05:37:04.827Z,20.83
2022-10-09T05:39:35.809Z,20.83
2022-10-09T05:42:04.105Z,22.08
2022-10-09T05:44:32.176Z,20.20
2022-10-09T05:47:00.273Z,15.38
2022-10-09T05:49:28.451Z,20.63
2022-10-09T05:51:56.861Z,23.65
2022-10-09T05:54:26.476Z,24.20
2022-10-09T05:56:54.477Z,23.52
2022-10-09T05:59:22.901Z,21.15
2022-10-09T06:01:52.387Z,17.40
2022-10-09T06:04:22.465Z,21.90
2022-10-09T06:06:51.147Z,16.00
2022-10-09T06:09:22.530Z,19.00
2022-10-09T06:11:52.559Z,16.10
2022-10-09T06:14:22.089Z,16.30
2022-10-09T06:16:50.790Z,18.23
2022-10-09T06:19:20.358Z,26.15
2022-10-09T06:21:49.329Z,20.85
2022-10-09T06:24:24.483Z,21.52
2022-10-09T06:26:57.771Z,19.40
2022-10-09T06:29:26.149Z,14.70
2022-10-09T06:31:54.458Z,18.77
2022-10-09T06:34:22.681Z,16.27
2022-10-09T06:36:50.964Z,21.15
2022-10-09T06:39:19.343Z,14.88
2022-10-09T06:41:47.621Z,23.05
2022-10-09T06:44:32.704Z,19.33
2022-10-09T06:47:00.929Z,16.20
2022-10-09T06:49:28.961Z,17.02
2022-10-09T06:51:57.092Z,18.08
2022-10-09T06:54:25.053Z,10.00
2022-10-09T06:56:55.589Z,13.77
2022-10-09T06:59:23.591Z,15.23
2022-10-09T07:01:53.228Z,15.38
2022-10-09T07:04:21.663Z,12.55
2022-10-09T07:06:49.833Z,15.98
2022-10-09T07:09:18.055Z,11.65
2022-10-09T07:11:49.270Z,21.75
2022-10-09T07:14:18.212Z,15.45
2022-10-09T07:16:48.333Z,10.68
2022-10-09T07:19:19.283Z,12.77
2022-10-09T07:21:49.495Z,12.95
2022-10-09T07:24:20.643Z,10.43
2022-10-09T07:26:49.504Z,10.65
2022-10-09T07:29:19.832Z,15.00
2022-10-09T07:31:48.041Z,16.80
2022-10-09T07:34:17.609Z,11.52
2022-10-09T07:36:45.595Z,10.40
2022-10-09T07:39:13.790Z,14.10
2022-10-09T07:41:41.847Z,13.85
2022-10-09T07:44:10.291Z,12.80
2022-10-09T07:46:38.922Z,11.95
2022-10-09T07:49:07.288Z,13.40
2022-10-09T07:51:36.707Z,15.05
2022-10-09T07:54:05.080Z,9.98
2022-10-09T07:56:34.653Z,13.05
2022-10-09T07:59:04.499Z,11.27
2022-10-09T08:01:34.362Z,6.97
2022-10-09T08:04:02.814Z,15.80
2022-10-09T08:06:31.905Z,12.35
2022-10-09T08:09:03.054Z,10.68
2022-10-09T08:11:32.480Z,9.60
2022-10-09T08:14:00.794Z,8.38
2022-10-09T08:16:29.341Z,7.55
2022-10-09T08:18:58.857Z,8.35
2022-10-09T08:21:28.441Z,9.38
2022-10-09T08:23:57.974Z,9.82
2022-10-09T08:26:30.161Z,9.95
2022-10-09T08:29:00.584Z,10.55
2022-10-09T08:31:29.397Z,7.45
2022-10-09T08:33:58.744Z,9.45
2022-10-09T08:36:27.566Z,7.68
2022-10-09T08:38:56.159Z,9.02
2022-10-09T08:41:39.712Z,10.88
2022-10-09T08:44:14.124Z,8.35
2022-10-09T08:47:05.812Z,10.55
2022-10-09T08:49:41.934Z,10.10
2022-10-09T08:52:34.779Z,6.15
2022-10-09T08:55:09.408Z,7.32
2022-10-09T08:57:40.330Z,10.00
2022-10-09T09:00:16.205Z,11.50
2022-10-09T09:03:04.534Z,8.82
2022-10-09T09:05:40.718Z,7.90
2022-10-09T09:08:19.214Z,4.45
2022-10-09T09:10:54.209Z,7.97
2022-10-09T09:13:41.782Z,7.35
2022-10-09T09:16:16.604Z,5.95
2022-10-09T09:18:51.833Z,6.82
2022-10-09T09:21:34.228Z,5.40
2022-10-09T09:24:08.011Z,5.90
2022-10-09T09:29:06.247Z,7.45
2022-10-09T09:31:38.190Z,4.57
2022-10-09T09:34:12.349Z,6.15
2022-10-09T09:36:45.870Z,6.22
2022-10-09T09:42:12.434Z,4.22
2022-10-09T09:44:47.208Z,5.20
2022-10-09T09:47:21.126Z,7.50
2022-10-09T09:49:57.919Z,3.33
2022-10-09T09:52:29.245Z,3.55
2022-10-09T09:54:59.433Z,4.50
2022-10-09T09:57:48.687Z,5.07
2022-10-09T10:00:24.059Z,4.30
2022-10-09T10:03:04.545Z,4.63
2022-10-09T10:05:38.460Z,5.50
2022-10-09T10:08:21.764Z,5.22
2022-10-09T10:10:51.607Z,3.35
2022-10-09T10:13:22.207Z,5.18
2022-10-09T10:15:54.752Z,3.47
2022-10-09T10:18:24.582Z,4.00
2022-10-09T10:20:55.105Z,5.20
2022-10-09T10:23:36.572Z,7.55
2022-10-09T10:26:15.036Z,5.03
2022-10-09T10:28:50.325Z,6.50
2022-10-09T10:31:33.625Z,5.63
2022-10-09T10:34:05.541Z,5.55
2022-10-09T10:36:34.958Z,4.60
2022-10-09T10:39:09.769Z,6.15
2022-10-09T10:41:45.533Z,6.28
2022-10-09T10:44:22.858Z,5.57
2022-10-09T10:47:00.140Z,5.28
2022-10-09T10:49:33.495Z,6.70
2022-10-09T10:52:18.247Z,3.90
2022-10-09T10:54:54.497Z,7.13
2022-10-09T10:57:27.430Z,4.63
2022-10-09T11:00:05.308Z,7.05
2022-10-09T11:03:05.361Z,5.72
2022-10-09T11:05:44.038Z,5.22
2022-10-09T11:08:42.762Z,4.57
2022-10-09T11:11:17.795Z,6.90
2022-10-09T11:13:54.435Z,4.55
2022-10-09T11:16:40.516Z,5.20
2022-10-09T11:19:28.502Z,10.32
2022-10-09T11:22:03.913Z,3.33
2022-10-09T11:24:47.498Z,5.60
2022-10-09T11:27:20.079Z,8.82
2022-10-09T11:29:52.769Z,6.78
2022-10-09T11:32:26.128Z,6.25
2022-10-09T11:34:59.669Z,5.10
2022-10-09T11:37:34.841Z,6.15
2022-10-09T11:40:07.355Z,3.85
2022-10-09T11:42:35.586Z,5.80
2022-10-09T11:45:15.958Z,4.72
2022-10-09T11:47:50.536Z,4.38
2022-10-09T11:50:46.775Z,4.45
2022-10-09T11:53:18.423Z,4.35
2022-10-09T11:55:48.305Z,4.85
2022-10-09T11:58:25.121Z,6.05
2022-10-09T12:00:55.921Z,4.53
2022-10-09T12:03:33.433Z,5.57
2022-10-09T12:06:09.441Z,5.85
2022-10-09T12:08:39.110Z,7.10
2022-10-09T12:11:14.334Z,6.70
2022-10-09T12:13:49.866Z,8.43
2022-10-09T12:16:39.846Z,7.10
2022-10-09T12:19:17.662Z,4.72
2022-10-09T12:21:52.350Z,4.97
2022-10-09T12:24:24.298Z,5.55
2022-10-09T12:26:54.715Z,5.13
2022-10-09T12:29:28.456Z,5.05
2022-10-09T12:32:03.674Z,5.38
2022-10-09T12:34:37.683Z,4.00
2022-10-09T12:37:16.765Z,4.93
2022-10-09T12:39:45.971Z,4.68
2022-10-09T12:42:20.010Z,4.20
2022-10-09T12:44:50.249Z,5.50
2022-10-09T12:47:23.890Z,4.57
2022-10-09T12:52:25.258Z,4.97
2022-10-09T12:54:53.375Z,4.78
2022-10-09T12:57:25.381Z,6.40
2022-10-09T12:59:56.487Z,4.35
2022-10-09T13:02:24.719Z,5.88
2022-10-09T13:04:59.424Z,5.85
2022-10-09T13:07:32.365Z,3.97
2022-10-09T13:10:07.388Z,5.28
2022-10-09T13:12:36.304Z,7.78
2022-10-09T13:15:07.806Z,4.53
2022-10-09T13:17:38.613Z,3.85
2022-10-09T13:20:25.610Z,7.15
2022-10-09T13:23:00.245Z,3.35
2022-10-09T13:25:34.098Z,4.03
2022-10-09T13:28:03.448Z,7.93
2022-10-09T13:30:31.896Z,6.20
2022-10-09T13:33:00.240Z,3.50
2022-10-09T13:35:28.389Z,5.05
2022-10-09T13:37:57.865Z,3.85
2022-10-09T13:40:26.221Z,4.50
2022-10-09T13:42:56.559Z,5.88
2022-10-09T13:45:25.353Z,5.30
2022-10-09T13:47:53.550Z,6.80
2022-10-09T13:50:21.680Z,4.70
2022-10-09T13:52:50.170Z,5.28
2022-10-09T13:55:19.963Z,5.38
2022-10-09T13:57:48.377Z,6.57
2022-10-09T14:00:16.953Z,5.10
2022-10-09T14:02:44.973Z,5.22
2022-10-09T14:05:13.264Z,6.15
2022-10-09T14:07:41.332Z,4.00
2022-10-09T14:10:10.370Z,4.35
2022-10-09T14:12:39.807Z,5.15
2022-10-09T14:15:08.948Z,4.63
2022-10-09T14:17:36.922Z,5.25
2022-10-09T14:20:06.506Z,6.30
2022-10-09T14:22:34.518Z,5.70
2022-10-09T14:25:02.597Z,3.47
2022-10-09T14:27:30.886Z,3.28
2022-10-09T14:30:00.391Z,3.28
2022-10-09T14:32:28.604Z,6.80
2022-10-09T14:34:56.743Z,3.72
2022-10-09T14:37:40.466Z,4.82
2022-10-09T14:40:09.810Z,4.75
2022-10-09T14:42:38.494Z,7.57
2022-10-09T14:45:09.441Z,6.13
2022-10-09T14:47:37.554Z,5.40
2022-10-09T14:50:05.949Z,4.03
2022-10-09T14:52:34.213Z,4.30
2022-10-09T14:55:02.233Z,6.47
2022-10-09T14:57:35.212Z,6.10
2022-10-09T15:00:04.832Z,5.95
2022-10-09T15:02:34.277Z,8.57
2022-10-09T15:05:02.368Z,6.22
2022-10-09T15:07:31.849Z,3.78
2022-10-09T15:10:00.257Z,5.95
2022-10-09T15:12:28.266Z,3.63
2022-10-09T15:14:56.474Z,5.28
2022-10-09T15:17:24.492Z,5.30
2022-10-09T15:19:54.221Z,5.55
2022-10-09T15:22:22.310Z,7.20
2022-10-09T15:24:50.775Z,7.10
2022-10-09T15:27:18.824Z,5.10
2022-10-09T15:29:46.824Z,3.60
2022-10-09T15:32:15.084Z,5.45
2022-10-09T15:34:43.079Z,6.45
2022-10-09T15:37:12.643Z,6.07
2022-10-09T15:39:41.056Z,4.35
2022-10-09T15:42:09.210Z,4.32
2022-10-09T15:44:37.355Z,5.18
2022-10-09T15:47:06.320Z,5.65
2022-10-09T15:49:34.550Z,7.03
2022-10-09T15:52:02.856Z,6.43
2022-10-09T15:54:32.261Z,4.05
2022-10-09T15:57:00.244Z,4.88
2022-10-09T15:59:31.543Z,7.13
2022-10-09T16:01:59.930Z,5.00
2022-10-09T16:04:29.085Z,4.32
2022-10-09T16:06:58.424Z,7.75
2022-10-09T16:09:26.603Z,6.68
2022-10-09T16:11:56.124Z,6.10
2022-10-09T16:14:27.244Z,4.25
2022-10-09T16:16:56.336Z,3.95
2022-10-09T16:19:24.750Z,4.32
2022-10-09T16:21:53.514Z,6.63
2022-10-09T16:24:23.613Z,5.25
2022-10-09T16:26:52.004Z,4.40
2022-10-09T16:29:21.499Z,5.43
2022-10-09T16:31:49.976Z,5.10
2022-10-09T16:34:18.013Z,7.55
2022-10-09T16:36:46.168Z,15.75
2022-10-09T16:39:14.247Z,13.27
2022-10-09T16:41:42.344Z,7.38
2022-10-09T16:44:13.972Z,5.80
2022-10-09T16:46:43.572Z,10.35
2022-10-09T16:49:19.897Z,6.65
2022-10-09T16:51:51.109Z,5.38
2022-10-09T16:54:19.201Z,7.15
2022-10-09T16:56:47.329Z,6.55
2022-10-09T16:59:15.549Z,7.07
2022-10-09T17:01:46.502Z,6.57
2022-10-09T17:04:14.922Z,6.47
2022-10-09T17:06:43.866Z,3.67
2022-10-09T17:09:14.212Z,4.00
2022-10-09T17:11:43.479Z,7.22
2022-10-09T17:14:12.093Z,7.15
2022-10-09T17:16:41.884Z,6.28
2022-10-09T17:19:11.527Z,5.20
2022-10-09T17:21:39.807Z,6.93
2022-10-09T17:24:08.547Z,7.22
2022-10-09T17:26:37.792Z,5.63
2022-10-09T17:29:06.373Z,8.98
2022-10-09T17:31:35.541Z,6.72
2022-10-09T17:34:05.204Z,7.07
2022-10-09T17:36:36.620Z,8.25
2022-10-09T17:39:05.760Z,6.60
2022-10-09T17:41:34.875Z,7.85
2022-10-09T17:44:03.211Z,7.63
2022-10-09T17:46:32.163Z,4.60
2022-10-09T17:49:01.165Z,6.53
2022-10-09T17:51:31.569Z,5.97
2022-10-09T17:54:04.876Z,5.97
2022-10-09T17:56:35.193Z,5.70
2022-10-09T17:59:05.157Z,5.72
2022-10-09T18:01:33.976Z,8.48
2022-10-09T18:04:02.331Z,10.82
2022-10-09T18:06:33.588Z,5.63
2022-10-09T18:09:04.701Z,4.30
2022-10-09T18:11:32.723Z,8.48
2022-10-09T18:14:00.837Z,4.93
2022-10-09T18:16:35.684Z,7.15
2022-10-09T18:19:06.059Z,6.90
2022-10-09T18:21:35.831Z,9.38
2022-10-09T18:24:05.892Z,7.20
2022-10-09T18:26:34.351Z,5.97
2022-10-09T18:29:03.418Z,8.48
2022-10-09T18:31:32.109Z,8.65
2022-10-09T18:34:01.188Z,9.80
2022-10-09T18:36:33.469Z,7.65
2022-10-09T18:39:03.202Z,8.82
2022-10-09T18:41:32.853Z,6.53
2022-10-09T18:44:01.926Z,7.45
2022-10-09T18:46:36.965Z,7.65
2022-10-09T18:49:09.669Z,9.30
2022-10-09T18:51:39.071Z,8.55
2022-10-09T18:54:08.526Z,6.47
2022-10-09T18:56:38.681Z,6.70
2022-10-09T18:59:10.082Z,6.72
2022-10-09T19:01:38.338Z,9.50
2022-10-09T19:04:06.440Z,5.25
2022-10-09T19:06:34.627Z,11.15
2022-10-09T19:09:02.847Z,7.45
2022-10-09T19:11:32.571Z,6.47
2022-10-09T19:14:02.022Z,7.20
2022-10-09T19:16:32.016Z,5.57
2022-10-09T19:19:00.253Z,6.60
2022-10-09T19:21:28.495Z,6.70
2022-10-09T19:23:56.689Z,11.15
2022-10-09T19:26:24.975Z,9.52
2022-10-09T19:28:53.066Z,5.90
2022-10-09T19:31:22.501Z,7.18
2022-10-09T19:33:50.540Z,8.75
2022-10-09T19:36:19.118Z,7.30
2022-10-09T19:38:47.530Z,8.30
2022-10-09T19:41:17.223Z,16.55
2022-10-09T19:43:45.536Z,8.35
2022-10-09T19:46:17.187Z,8.63
2022-10-09T19:48:46.762Z,10.10
2022-10-09T19:51:17.145Z,10.57
2022-10-09T19:53:45.347Z,4.70
2022-10-09T19:56:15.668Z,9.95
2022-10-09T19:58:45.124Z,9.82
2022-10-09T20:01:14.133Z,9.20
2022-10-09T20:03:43.138Z,6.38
2022-10-09T20:06:13.507Z,6.20
2022-10-09T20:08:42.938Z,8.50
2022-10-09T20:11:11.971Z,7.57
2022-10-09T20:13:41.263Z,7.05
2022-10-09T20:16:12.217Z,8.57
2022-10-09T20:18:42.186Z,7.82
2022-10-09T20:21:12.454Z,9.93
2022-10-09T20:23:40.892Z,8.15
2022-10-09T20:26:11.983Z,9.52
2022-10-09T20:28:40.721Z,10.75
2022-10-09T20:31:14.651Z,7.57
2022-10-09T20:33:43.588Z,6.60
2022-10-09T20:36:20.092Z,8.20
2022-10-09T20:38:48.362Z,11.60
2022-10-09T20:41:16.821Z,9.77
2022-10-09T20:43:45.060Z,8.48
2022-10-09T20:46:15.756Z,10.32
2022-10-09T20:48:44.319Z,11.20
2022-10-09T20:51:12.382Z,7.07
2022-10-09T20:53:41.850Z,9.98
2022-10-09T20:56:13.049Z,8.32
2022-10-09T20:58:41.701Z,8.82
2022-10-09T21:01:11.451Z,8.32
2022-10-09T21:03:40.346Z,8.02
2022-10-09T21:06:12.439Z,8.95
2022-10-09T21:08:41.945Z,6.18
2022-10-09T21:11:12.095Z,8.15
2022-10-09T21:13:41.661Z,10.07
2022-10-09T21:16:17.815Z,10.25
2022-10-09T21:18:46.059Z,6.95
2022-10-09T21:21:16.430Z,7.45
2022-10-09T21:23:46.713Z,8.95
2022-10-09T21:26:16.740Z,8.07
2022-10-09T21:28:45.766Z,9.13
2022-10-09T21:31:17.462Z,9.77
2022-10-09T21:33:45.861Z,7.43
2022-10-09T21:36:20.895Z,9.20
2022-10-09T21:38:50.267Z,11.25
2022-10-09T21:41:18.390Z,6.72
2022-10-09T21:43:46.391Z,6.78
2022-10-09T21:46:14.616Z,9.10
2022-10-09T21:48:42.747Z,8.23
2022-10-09T21:51:11.145Z,7.55
2022-10-09T21:53:39.549Z,11.63
2022-10-09T21:56:09.877Z,6.45
2022-10-09T21:58:39.114Z,5.82
2022-10-09T22:01:08.181Z,5.70
2022-10-09T22:03:37.801Z,9.55
2022-10-09T22:06:07.869Z,9.90
2022-10-09T22:08:36.626Z,5.10
2022-10-09T22:11:05.412Z,9.70
2022-10-09T22:13:35.736Z,9.50
2022-10-09T22:16:06.055Z,7.35
2022-10-09T22:18:34.432Z,6.47
2022-10-09T22:21:06.257Z,5.55
2022-10-09T22:23:35.146Z,6.97
2022-10-09T22:26:06.643Z,5.68
2022-10-09T22:28:36.283Z,9.60
2022-10-09T22:31:07.095Z,8.90
2022-10-09T22:33:36.327Z,8.02
2022-10-09T22:36:10.109Z,4.28
2022-10-09T22:38:39.082Z,6.43
2022-10-09T22:41:09.271Z,4.80
2022-10-09T22:43:40.045Z,6.22
2022-10-09T22:46:10.164Z,8.90
2022-10-09T22:48:38.565Z,6.22
2022-10-09T22:51:08.486Z,12.30
2022-10-09T22:53:37.559Z,16.95
2022-10-09T22:56:06.520Z,6.47
2022-10-09T22:58:35.428Z,7.22
2022-10-09T23:01:07.540Z,9.38
2022-10-09T23:03:35.966Z,9.02
2022-10-09T23:06:09.132Z,9.63
2022-10-09T23:08:39.294Z,10.50
2022-10-09T23:11:07.770Z,13.20
2022-10-09T23:13:40.584Z,7.43
2022-10-09T23:16:14.921Z,6.50
2022-10-09T23:18:44.231Z,9.65
2022-10-09T23:21:14.773Z,6.93
2022-10-09T23:23:43.533Z,9.27
2022-10-09T23:26:13.516Z,5.95
2022-10-09T23:28:42.554Z,6.55
2022-10-09T23:31:13.389Z,4.82
2022-10-09T23:33:42.532Z,11.20
2022-10-09T23:36:14.131Z,9.32
2022-10-09T23:38:42.369Z,7.90
2022-10-09T23:41:13.797Z,4.95
2022-10-09T23:43:43.955Z,7.50
2022-10-09T23:46:16.142Z,10.85
2022-10-09T23:48:44.618Z,9.75
2022-10-09T23:51:14.156Z,5.13
2022-10-09T23:53:43.193Z,8.07
2022-10-09T23:56:18.532Z,5.55
2022-10-09T23:58:46.978Z,4.65
